sensor_id;sensor_type;location;lat;lon;timestamp;P1;durP1;ratioP1;P2;durP2;ratioP2
45970;SDS011;31681;48.982;8.394;2022-08-19T00:00:54;16.80;;;14.88;;
45970;SDS011;31681;48.982;8.394;2022-08-19T00:03:20;16.92;;;15.23;;
45970;SDS011;31681;48.982;8.394;2022-08-19T00:05:45;17.92;;;15.27;;
45970;SDS011;31681;48.982;8.394;2022-08-19T00:08:10;16.77;;;15.07;;
45970;SDS011;31681;48.982;8.394;2022-08-19T00:10:35;16.65;;;14.95;;
45970;SDS011;31681;48.982;8.394;2022-08-19T00:13:01;16.90;;;15.10;;
45970;SDS011;31681;48.982;8.394;2022-08-19T00:15:26;16.88;;;15.07;;
45970;SDS011;31681;48.982;8.394;2022-08-19T00:17:51;16.88;;;15.18;;
45970;SDS011;31681;48.982;8.394;2022-08-19T00:20:18;17.60;;;15.75;;
45970;SDS011;31681;48.982;8.394;2022-08-19T00:22:44;17.55;;;15.75;;
45970;SDS011;31681;48.982;8.394;2022-08-19T00:25:09;16.35;;;14.65;;
45970;SDS011;31681;48.982;8.394;2022-08-19T00:27:34;16.70;;;14.93;;
45970;SDS011;31681;48.982;8.394;2022-08-19T00:30:00;16.75;;;15.00;;
45970;SDS011;31681;48.982;8.394;2022-08-19T00:32:26;17.98;;;15.40;;
45970;SDS011;31681;48.982;8.394;2022-08-19T00:34:52;17.83;;;15.43;;
45970;SDS011;31681;48.982;8.394;2022-08-19T00:37:22;17.33;;;15.52;;
45970;SDS011;31681;48.982;8.394;2022-08-19T00:39:48;19.00;;;15.75;;
45970;SDS011;31681;48.982;8.394;2022-08-19T00:42:13;18.38;;;15.70;;
45970;SDS011;31681;48.982;8.394;2022-08-19T00:44:39;19.08;;;16.23;;
45970;SDS011;31681;48.982;8.394;2022-08-19T00:47:04;17.25;;;15.55;;
45970;SDS011;31681;48.982;8.394;2022-08-19T00:49:37;18.05;;;16.15;;
45970;SDS011;31681;48.982;8.394;2022-08-19T00:52:04;19.05;;;16.75;;
45970;SDS011;31681;48.982;8.394;2022-08-19T00:54:31;19.23;;;17.20;;
45970;SDS011;31681;48.982;8.394;2022-08-19T00:56:58;19.05;;;16.38;;
45970;SDS011;31681;48.982;8.394;2022-08-19T00:59:24;19.20;;;17.20;;
45970;SDS011;31681;48.982;8.394;2022-08-19T01:01:50;18.67;;;16.77;;
45970;SDS011;31681;48.982;8.394;2022-08-19T01:04:15;18.48;;;16.67;;
45970;SDS011;31681;48.982;8.394;2022-08-19T01:06:41;18.23;;;16.27;;
45970;SDS011;31681;48.982;8.394;2022-08-19T01:09:06;18.40;;;16.58;;
45970;SDS011;31681;48.982;8.394;2022-08-19T01:11:33;17.10;;;15.40;;
45970;SDS011;31681;48.982;8.394;2022-08-19T01:13:59;18.10;;;16.27;;
45970;SDS011;31681;48.982;8.394;2022-08-19T01:16:25;18.08;;;15.77;;
45970;SDS011;31681;48.982;8.394;2022-08-19T01:18:51;17.05;;;15.23;;
45970;SDS011;31681;48.982;8.394;2022-08-19T01:23:47;17.10;;;15.40;;
45970;SDS011;31681;48.982;8.394;2022-08-19T01:26:14;16.73;;;15.13;;
45970;SDS011;31681;48.982;8.394;2022-08-19T01:28:40;18.70;;;16.73;;
45970;SDS011;31681;48.982;8.394;2022-08-19T01:31:06;18.30;;;15.73;;
45970;SDS011;31681;48.982;8.394;2022-08-19T01:33:32;18.17;;;16.38;;
45970;SDS011;31681;48.982;8.394;2022-08-19T01:36:08;17.92;;;16.13;;
45970;SDS011;31681;48.982;8.394;2022-08-19T01:38:35;18.20;;;15.88;;
45970;SDS011;31681;48.982;8.394;2022-08-19T01:41:01;18.98;;;17.08;;
45970;SDS011;31681;48.982;8.394;2022-08-19T01:43:26;19.75;;;17.75;;
45970;SDS011;31681;48.982;8.394;2022-08-19T01:45:51;20.75;;;18.65;;
45970;SDS011;31681;48.982;8.394;2022-08-19T01:48:18;21.48;;;19.17;;
45970;SDS011;31681;48.982;8.394;2022-08-19T01:50:43;21.35;;;19.00;;
45970;SDS011;31681;48.982;8.394;2022-08-19T01:53:09;23.40;;;20.88;;
45970;SDS011;31681;48.982;8.394;2022-08-19T01:55:36;23.13;;;20.67;;
45970;SDS011;31681;48.982;8.394;2022-08-19T01:58:02;23.33;;;20.92;;
45970;SDS011;31681;48.982;8.394;2022-08-19T02:00:29;24.30;;;21.65;;
45970;SDS011;31681;48.982;8.394;2022-08-19T02:02:55;25.48;;;21.98;;
45970;SDS011;31681;48.982;8.394;2022-08-19T02:05:21;25.45;;;22.20;;
45970;SDS011;31681;48.982;8.394;2022-08-19T02:07:46;23.92;;;21.35;;
45970;SDS011;31681;48.982;8.394;2022-08-19T02:10:14;26.35;;;22.60;;
45970;SDS011;31681;48.982;8.394;2022-08-19T02:12:39;27.13;;;24.17;;
45970;SDS011;31681;48.982;8.394;2022-08-19T02:15:05;28.05;;;24.05;;
45970;SDS011;31681;48.982;8.394;2022-08-19T02:17:31;28.15;;;24.83;;
45970;SDS011;31681;48.982;8.394;2022-08-19T02:19:56;27.30;;;24.35;;
45970;SDS011;31681;48.982;8.394;2022-08-19T02:22:22;29.30;;;24.50;;
45970;SDS011;31681;48.982;8.394;2022-08-19T02:24:47;30.77;;;24.92;;
45970;SDS011;31681;48.982;8.394;2022-08-19T02:27:13;25.48;;;22.73;;
45970;SDS011;31681;48.982;8.394;2022-08-19T02:29:38;27.38;;;24.05;;
45970;SDS011;31681;48.982;8.394;2022-08-19T02:32:03;26.30;;;23.50;;
45970;SDS011;31681;48.982;8.394;2022-08-19T02:34:29;26.55;;;23.58;;
45970;SDS011;31681;48.982;8.394;2022-08-19T02:36:54;28.75;;;24.00;;
45970;SDS011;31681;48.982;8.394;2022-08-19T02:39:19;29.73;;;23.75;;
45970;SDS011;31681;48.982;8.394;2022-08-19T02:41:45;30.20;;;23.88;;
45970;SDS011;31681;48.982;8.394;2022-08-19T02:44:10;26.80;;;23.75;;
45970;SDS011;31681;48.982;8.394;2022-08-19T02:46:35;26.92;;;22.20;;
45970;SDS011;31681;48.982;8.394;2022-08-19T02:49:03;26.33;;;23.13;;
45970;SDS011;31681;48.982;8.394;2022-08-19T02:51:30;24.95;;;22.35;;
45970;SDS011;31681;48.982;8.394;2022-08-19T02:53:56;26.45;;;23.48;;
45970;SDS011;31681;48.982;8.394;2022-08-19T02:56:22;29.85;;;22.75;;
45970;SDS011;31681;48.982;8.394;2022-08-19T02:58:49;25.73;;;22.90;;
45970;SDS011;31681;48.982;8.394;2022-08-19T03:01:24;24.55;;;21.58;;
45970;SDS011;31681;48.982;8.394;2022-08-19T03:03:50;24.17;;;21.58;;
45970;SDS011;31681;48.982;8.394;2022-08-19T03:06:16;24.10;;;21.55;;
45970;SDS011;31681;48.982;8.394;2022-08-19T03:08:42;25.23;;;21.13;;
45970;SDS011;31681;48.982;8.394;2022-08-19T03:11:28;25.00;;;22.42;;
45970;SDS011;31681;48.982;8.394;2022-08-19T03:13:54;23.63;;;21.13;;
45970;SDS011;31681;48.982;8.394;2022-08-19T03:16:20;24.88;;;21.70;;
45970;SDS011;31681;48.982;8.394;2022-08-19T03:18:46;23.50;;;21.08;;
45970;SDS011;31681;48.982;8.394;2022-08-19T03:21:15;24.73;;;22.08;;
45970;SDS011;31681;48.982;8.394;2022-08-19T03:23:41;23.08;;;20.70;;
45970;SDS011;31681;48.982;8.394;2022-08-19T03:26:06;23.23;;;19.90;;
45970;SDS011;31681;48.982;8.394;2022-08-19T03:28:32;23.52;;;20.38;;
45970;SDS011;31681;48.982;8.394;2022-08-19T03:30:58;23.17;;;20.52;;
45970;SDS011;31681;48.982;8.394;2022-08-19T03:33:25;25.67;;;21.73;;
45970;SDS011;31681;48.982;8.394;2022-08-19T03:36:10;23.98;;;21.42;;
45970;SDS011;31681;48.982;8.394;2022-08-19T03:38:37;26.40;;;21.65;;
45970;SDS011;31681;48.982;8.394;2022-08-19T03:41:03;24.10;;;21.48;;
45970;SDS011;31681;48.982;8.394;2022-08-19T03:43:31;25.52;;;22.50;;
45970;SDS011;31681;48.982;8.394;2022-08-19T03:46:00;24.92;;;21.83;;
45970;SDS011;31681;48.982;8.394;2022-08-19T03:48:26;29.30;;;23.98;;
45970;SDS011;31681;48.982;8.394;2022-08-19T03:50:51;26.65;;;23.60;;
45970;SDS011;31681;48.982;8.394;2022-08-19T03:53:16;26.35;;;23.02;;
45970;SDS011;31681;48.982;8.394;2022-08-19T03:55:41;28.60;;;24.48;;
45970;SDS011;31681;48.982;8.394;2022-08-19T03:58:06;29.00;;;23.47;;
45970;SDS011;31681;48.982;8.394;2022-08-19T04:00:32;31.85;;;25.23;;
45970;SDS011;31681;48.982;8.394;2022-08-19T04:02:58;28.17;;;24.70;;
45970;SDS011;31681;48.982;8.394;2022-08-19T04:05:23;30.73;;;25.63;;
45970;SDS011;31681;48.982;8.394;2022-08-19T04:07:48;33.25;;;28.35;;
45970;SDS011;31681;48.982;8.394;2022-08-19T04:10:14;35.53;;;27.58;;
45970;SDS011;31681;48.982;8.394;2022-08-19T04:12:39;34.53;;;27.83;;
45970;SDS011;31681;48.982;8.394;2022-08-19T04:15:04;38.10;;;29.13;;
45970;SDS011;31681;48.982;8.394;2022-08-19T04:17:31;35.67;;;29.40;;
45970;SDS011;31681;48.982;8.394;2022-08-19T04:19:56;37.03;;;29.77;;
45970;SDS011;31681;48.982;8.394;2022-08-19T04:22:21;33.78;;;28.48;;
45970;SDS011;31681;48.982;8.394;2022-08-19T04:24:47;34.58;;;27.25;;
45970;SDS011;31681;48.982;8.394;2022-08-19T04:27:12;34.20;;;27.50;;
45970;SDS011;31681;48.982;8.394;2022-08-19T04:29:37;34.38;;;29.02;;
45970;SDS011;31681;48.982;8.394;2022-08-19T04:32:04;37.55;;;28.67;;
45970;SDS011;31681;48.982;8.394;2022-08-19T04:34:30;36.85;;;28.70;;
45970;SDS011;31681;48.982;8.394;2022-08-19T04:36:56;35.60;;;27.23;;
45970;SDS011;31681;48.982;8.394;2022-08-19T04:39:27;31.73;;;26.65;;
45970;SDS011;31681;48.982;8.394;2022-08-19T04:42:13;32.92;;;26.27;;
45970;SDS011;31681;48.982;8.394;2022-08-19T04:44:56;33.80;;;27.70;;
45970;SDS011;31681;48.982;8.394;2022-08-19T04:47:23;33.58;;;26.65;;
45970;SDS011;31681;48.982;8.394;2022-08-19T04:49:48;31.55;;;26.48;;
45970;SDS011;31681;48.982;8.394;2022-08-19T04:52:13;31.98;;;26.13;;
45970;SDS011;31681;48.982;8.394;2022-08-19T04:54:39;31.92;;;25.02;;
45970;SDS011;31681;48.982;8.394;2022-08-19T04:57:07;35.83;;;26.75;;
45970;SDS011;31681;48.982;8.394;2022-08-19T04:59:35;35.75;;;28.08;;
45970;SDS011;31681;48.982;8.394;2022-08-19T05:02:00;31.55;;;25.75;;
45970;SDS011;31681;48.982;8.394;2022-08-19T05:04:26;31.52;;;26.13;;
45970;SDS011;31681;48.982;8.394;2022-08-19T05:06:51;30.67;;;25.33;;
45970;SDS011;31681;48.982;8.394;2022-08-19T05:09:18;27.70;;;24.48;;
45970;SDS011;31681;48.982;8.394;2022-08-19T05:11:44;29.42;;;24.30;;
45970;SDS011;31681;48.982;8.394;2022-08-19T05:14:10;29.20;;;24.38;;
45970;SDS011;31681;48.982;8.394;2022-08-19T05:16:37;31.17;;;24.35;;
45970;SDS011;31681;48.982;8.394;2022-08-19T05:19:02;26.67;;;23.83;;
45970;SDS011;31681;48.982;8.394;2022-08-19T05:21:46;29.33;;;24.00;;
45970;SDS011;31681;48.982;8.394;2022-08-19T05:24:31;26.75;;;22.50;;
45970;SDS011;31681;48.982;8.394;2022-08-19T05:26:59;27.98;;;23.35;;
45970;SDS011;31681;48.982;8.394;2022-08-19T05:29:25;31.55;;;24.92;;
45970;SDS011;31681;48.982;8.394;2022-08-19T05:31:51;27.75;;;23.60;;
45970;SDS011;31681;48.982;8.394;2022-08-19T05:34:17;28.50;;;23.35;;
45970;SDS011;31681;48.982;8.394;2022-08-19T05:36:44;26.23;;;22.17;;
45970;SDS011;31681;48.982;8.394;2022-08-19T05:39:12;24.02;;;21.42;;
45970;SDS011;31681;48.982;8.394;2022-08-19T05:41:41;24.88;;;20.70;;
45970;SDS011;31681;48.982;8.394;2022-08-19T05:44:06;27.63;;;22.95;;
45970;SDS011;31681;48.982;8.394;2022-08-19T05:46:34;28.45;;;22.15;;
45970;SDS011;31681;48.982;8.394;2022-08-19T05:48:59;23.05;;;19.35;;
45970;SDS011;31681;48.982;8.394;2022-08-19T05:51:25;24.95;;;20.35;;
45970;SDS011;31681;48.982;8.394;2022-08-19T05:53:50;26.67;;;22.00;;
45970;SDS011;31681;48.982;8.394;2022-08-19T05:56:16;25.13;;;21.58;;
45970;SDS011;31681;48.982;8.394;2022-08-19T05:58:43;23.77;;;21.27;;
45970;SDS011;31681;48.982;8.394;2022-08-19T06:01:10;25.17;;;21.85;;
45970;SDS011;31681;48.982;8.394;2022-08-19T06:03:37;28.15;;;21.67;;
45970;SDS011;31681;48.982;8.394;2022-08-19T06:06:03;24.40;;;21.35;;
45970;SDS011;31681;48.982;8.394;2022-08-19T06:08:28;30.38;;;22.13;;
45970;SDS011;31681;48.982;8.394;2022-08-19T06:10:53;23.75;;;21.17;;
45970;SDS011;31681;48.982;8.394;2022-08-19T06:13:19;27.30;;;21.52;;
45970;SDS011;31681;48.982;8.394;2022-08-19T06:15:44;24.95;;;20.92;;
45970;SDS011;31681;48.982;8.394;2022-08-19T06:18:11;23.40;;;20.90;;
45970;SDS011;31681;48.982;8.394;2022-08-19T06:20:39;24.23;;;21.30;;
45970;SDS011;31681;48.982;8.394;2022-08-19T06:23:05;25.80;;;21.92;;
45970;SDS011;31681;48.982;8.394;2022-08-19T06:25:30;23.58;;;20.95;;
45970;SDS011;31681;48.982;8.394;2022-08-19T06:27:55;24.88;;;21.73;;
45970;SDS011;31681;48.982;8.394;2022-08-19T06:30:21;23.75;;;21.20;;
45970;SDS011;31681;48.982;8.394;2022-08-19T06:32:46;28.85;;;21.65;;
45970;SDS011;31681;48.982;8.394;2022-08-19T06:35:11;27.95;;;23.55;;
45970;SDS011;31681;48.982;8.394;2022-08-19T06:37:38;29.08;;;22.60;;
45970;SDS011;31681;48.982;8.394;2022-08-19T06:40:03;26.42;;;22.75;;
45970;SDS011;31681;48.982;8.394;2022-08-19T06:42:29;28.13;;;22.80;;
45970;SDS011;31681;48.982;8.394;2022-08-19T06:44:55;29.35;;;21.90;;
45970;SDS011;31681;48.982;8.394;2022-08-19T06:47:21;25.80;;;22.10;;
45970;SDS011;31681;48.982;8.394;2022-08-19T06:49:46;25.70;;;22.55;;
45970;SDS011;31681;48.982;8.394;2022-08-19T06:52:12;24.98;;;21.42;;
45970;SDS011;31681;48.982;8.394;2022-08-19T06:54:37;26.98;;;22.80;;
45970;SDS011;31681;48.982;8.394;2022-08-19T06:57:02;27.33;;;23.05;;
45970;SDS011;31681;48.982;8.394;2022-08-19T06:59:28;29.38;;;22.83;;
45970;SDS011;31681;48.982;8.394;2022-08-19T07:01:58;25.63;;;22.02;;
45970;SDS011;31681;48.982;8.394;2022-08-19T07:04:27;27.20;;;22.75;;
45970;SDS011;31681;48.982;8.394;2022-08-19T07:06:57;26.27;;;22.48;;
45970;SDS011;31681;48.982;8.394;2022-08-19T07:09:23;27.75;;;21.48;;
45970;SDS011;31681;48.982;8.394;2022-08-19T07:11:49;23.77;;;21.20;;
45970;SDS011;31681;48.982;8.394;2022-08-19T07:14:16;23.40;;;20.88;;
45970;SDS011;31681;48.982;8.394;2022-08-19T07:16:42;27.05;;;21.63;;
45970;SDS011;31681;48.982;8.394;2022-08-19T07:19:08;23.88;;;21.30;;
45970;SDS011;31681;48.982;8.394;2022-08-19T07:21:33;22.52;;;19.83;;
45970;SDS011;31681;48.982;8.394;2022-08-19T07:24:00;23.45;;;20.23;;
45970;SDS011;31681;48.982;8.394;2022-08-19T07:26:27;24.92;;;21.77;;
45970;SDS011;31681;48.982;8.394;2022-08-19T07:28:53;22.25;;;19.80;;
45970;SDS011;31681;48.982;8.394;2022-08-19T07:31:20;24.77;;;20.42;;
45970;SDS011;31681;48.982;8.394;2022-08-19T07:33:46;24.67;;;20.73;;
45970;SDS011;31681;48.982;8.394;2022-08-19T07:36:13;22.60;;;19.58;;
45970;SDS011;31681;48.982;8.394;2022-08-19T07:38:42;23.80;;;19.60;;
45970;SDS011;31681;48.982;8.394;2022-08-19T07:41:09;24.13;;;18.63;;
45970;SDS011;31681;48.982;8.394;2022-08-19T07:43:34;22.05;;;19.20;;
45970;SDS011;31681;48.982;8.394;2022-08-19T07:46:00;21.58;;;18.65;;
45970;SDS011;31681;48.982;8.394;2022-08-19T07:48:26;21.23;;;18.67;;
45970;SDS011;31681;48.982;8.394;2022-08-19T07:50:55;19.85;;;17.77;;
45970;SDS011;31681;48.982;8.394;2022-08-19T07:53:22;19.52;;;17.50;;
45970;SDS011;31681;48.982;8.394;2022-08-19T07:55:47;20.35;;;18.15;;
45970;SDS011;31681;48.982;8.394;2022-08-19T07:58:14;21.02;;;17.73;;
45970;SDS011;31681;48.982;8.394;2022-08-19T08:00:40;20.05;;;17.77;;
45970;SDS011;31681;48.982;8.394;2022-08-19T08:03:06;19.75;;;17.65;;
45970;SDS011;31681;48.982;8.394;2022-08-19T08:05:31;20.55;;;17.70;;
45970;SDS011;31681;48.982;8.394;2022-08-19T08:08:15;23.08;;;16.42;;
45970;SDS011;31681;48.982;8.394;2022-08-19T08:10:59;20.73;;;17.48;;
45970;SDS011;31681;48.982;8.394;2022-08-19T08:13:24;20.05;;;16.27;;
45970;SDS011;31681;48.982;8.394;2022-08-19T08:15:49;19.90;;;16.83;;
45970;SDS011;31681;48.982;8.394;2022-08-19T08:18:15;19.08;;;16.75;;
45970;SDS011;31681;48.982;8.394;2022-08-19T08:20:40;18.67;;;15.10;;
45970;SDS011;31681;48.982;8.394;2022-08-19T08:23:05;16.98;;;15.30;;
45970;SDS011;31681;48.982;8.394;2022-08-19T08:26:06;18.92;;;14.88;;
45970;SDS011;31681;48.982;8.394;2022-08-19T08:28:31;17.55;;;15.73;;
45970;SDS011;31681;48.982;8.394;2022-08-19T08:30:57;18.10;;;15.70;;
45970;SDS011;31681;48.982;8.394;2022-08-19T08:33:23;20.80;;;14.55;;
45970;SDS011;31681;48.982;8.394;2022-08-19T08:35:48;18.77;;;16.13;;
45970;SDS011;31681;48.982;8.394;2022-08-19T08:38:14;17.63;;;14.73;;
45970;SDS011;31681;48.982;8.394;2022-08-19T08:40:44;16.50;;;14.55;;
45970;SDS011;31681;48.982;8.394;2022-08-19T08:45:38;17.13;;;13.85;;
45970;SDS011;31681;48.982;8.394;2022-08-19T08:48:16;17.48;;;13.05;;
45970;SDS011;31681;48.982;8.394;2022-08-19T08:50:43;19.33;;;13.82;;
45970;SDS011;31681;48.982;8.394;2022-08-19T08:53:10;15.18;;;13.00;;
45970;SDS011;31681;48.982;8.394;2022-08-19T08:55:39;15.90;;;12.38;;
45970;SDS011;31681;48.982;8.394;2022-08-19T08:58:06;14.80;;;12.00;;
45970;SDS011;31681;48.982;8.394;2022-08-19T09:00:39;16.95;;;12.93;;
45970;SDS011;31681;48.982;8.394;2022-08-19T09:03:18;16.42;;;12.02;;
45970;SDS011;31681;48.982;8.394;2022-08-19T09:05:55;17.83;;;11.43;;
45970;SDS011;31681;48.982;8.394;2022-08-19T09:08:28;13.20;;;11.18;;
45970;SDS011;31681;48.982;8.394;2022-08-19T09:10:56;13.23;;;11.00;;
45970;SDS011;31681;48.982;8.394;2022-08-19T09:15:48;12.87;;;11.53;;
45970;SDS011;31681;48.982;8.394;2022-08-19T09:18:14;14.73;;;11.50;;
45970;SDS011;31681;48.982;8.394;2022-08-19T09:20:41;12.38;;;9.85;;
45970;SDS011;31681;48.982;8.394;2022-08-19T09:23:06;11.18;;;10.07;;
45970;SDS011;31681;48.982;8.394;2022-08-19T09:25:31;14.10;;;10.30;;
45970;SDS011;31681;48.982;8.394;2022-08-19T09:27:59;12.98;;;10.25;;
45970;SDS011;31681;48.982;8.394;2022-08-19T09:30:28;14.13;;;10.32;;
45970;SDS011;31681;48.982;8.394;2022-08-19T09:32:54;12.23;;;10.18;;
45970;SDS011;31681;48.982;8.394;2022-08-19T09:35:23;10.98;;;9.32;;
45970;SDS011;31681;48.982;8.394;2022-08-19T09:37:54;16.15;;;9.82;;
45970;SDS011;31681;48.982;8.394;2022-08-19T09:40:19;9.63;;;8.63;;
45970;SDS011;31681;48.982;8.394;2022-08-19T09:42:45;8.93;;;8.02;;
45970;SDS011;31681;48.982;8.394;2022-08-19T09:45:12;11.30;;;8.70;;
45970;SDS011;31681;48.982;8.394;2022-08-19T09:47:37;10.63;;;9.65;;
45970;SDS011;31681;48.982;8.394;2022-08-19T09:50:07;11.23;;;8.05;;
45970;SDS011;31681;48.982;8.394;2022-08-19T09:52:32;9.45;;;8.48;;
45970;SDS011;31681;48.982;8.394;2022-08-19T09:54:58;11.93;;;9.00;;
45970;SDS011;31681;48.982;8.394;2022-08-19T09:57:23;9.68;;;8.70;;
45970;SDS011;31681;48.982;8.394;2022-08-19T09:59:48;9.00;;;8.10;;
45970;SDS011;31681;48.982;8.394;2022-08-19T10:02:13;8.80;;;7.88;;
45970;SDS011;31681;48.982;8.394;2022-08-19T10:04:39;10.30;;;8.27;;
45970;SDS011;31681;48.982;8.394;2022-08-19T10:07:23;8.00;;;7.20;;
45970;SDS011;31681;48.982;8.394;2022-08-19T10:09:48;10.23;;;8.63;;
45970;SDS011;31681;48.982;8.394;2022-08-19T10:12:13;9.32;;;7.93;;
45970;SDS011;31681;48.982;8.394;2022-08-19T10:14:40;8.75;;;7.90;;
45970;SDS011;31681;48.982;8.394;2022-08-19T10:17:05;9.10;;;8.00;;
45970;SDS011;31681;48.982;8.394;2022-08-19T10:19:30;10.82;;;7.57;;
45970;SDS011;31681;48.982;8.394;2022-08-19T10:22:02;10.32;;;8.23;;
45970;SDS011;31681;48.982;8.394;2022-08-19T10:24:27;10.27;;;8.98;;
45970;SDS011;31681;48.982;8.394;2022-08-19T10:26:53;9.73;;;8.38;;
45970;SDS011;31681;48.982;8.394;2022-08-19T10:29:18;9.57;;;8.57;;
45970;SDS011;31681;48.982;8.394;2022-08-19T10:31:43;11.60;;;8.53;;
45970;SDS011;31681;48.982;8.394;2022-08-19T10:34:09;10.55;;;8.25;;
45970;SDS011;31681;48.982;8.394;2022-08-19T10:36:36;9.27;;;8.35;;
45970;SDS011;31681;48.982;8.394;2022-08-19T10:39:02;8.50;;;7.63;;
45970;SDS011;31681;48.982;8.394;2022-08-19T10:41:30;9.30;;;7.25;;
45970;SDS011;31681;48.982;8.394;2022-08-19T10:43:57;9.40;;;7.63;;
45970;SDS011;31681;48.982;8.394;2022-08-19T10:46:23;8.98;;;8.18;;
45970;SDS011;31681;48.982;8.394;2022-08-19T10:48:49;8.65;;;7.85;;
45970;SDS011;31681;48.982;8.394;2022-08-19T10:51:14;9.00;;;7.72;;
45970;SDS011;31681;48.982;8.394;2022-08-19T10:53:58;9.18;;;8.38;;
45970;SDS011;31681;48.982;8.394;2022-08-19T10:56:24;12.60;;;9.25;;
45970;SDS011;31681;48.982;8.394;2022-08-19T10:59:08;9.30;;;8.40;;
45970;SDS011;31681;48.982;8.394;2022-08-19T11:01:34;9.93;;;8.52;;
45970;SDS011;31681;48.982;8.394;2022-08-19T11:04:02;8.80;;;7.93;;
45970;SDS011;31681;48.982;8.394;2022-08-19T11:06:28;9.23;;;8.32;;
45970;SDS011;31681;48.982;8.394;2022-08-19T11:08:54;9.18;;;8.25;;
45970;SDS011;31681;48.982;8.394;2022-08-19T11:11:19;10.00;;;9.00;;
45970;SDS011;31681;48.982;8.394;2022-08-19T11:13:45;10.63;;;9.63;;
45970;SDS011;31681;48.982;8.394;2022-08-19T11:16:15;10.18;;;8.25;;
45970;SDS011;31681;48.982;8.394;2022-08-19T11:18:42;9.80;;;8.80;;
45970;SDS011;31681;48.982;8.394;2022-08-19T11:23:43;10.48;;;9.20;;
45970;SDS011;31681;48.982;8.394;2022-08-19T11:26:09;9.80;;;8.90;;
45970;SDS011;31681;48.982;8.394;2022-08-19T11:28:35;9.60;;;8.80;;
45970;SDS011;31681;48.982;8.394;2022-08-19T11:31:01;10.00;;;9.07;;
45970;SDS011;31681;48.982;8.394;2022-08-19T11:33:28;9.68;;;8.68;;
45970;SDS011;31681;48.982;8.394;2022-08-19T11:35:53;9.93;;;8.93;;
45970;SDS011;31681;48.982;8.394;2022-08-19T11:38:19;10.60;;;9.60;;
45970;SDS011;31681;48.982;8.394;2022-08-19T11:40:44;10.75;;;9.27;;
45970;SDS011;31681;48.982;8.394;2022-08-19T11:43:10;9.77;;;8.07;;
45970;SDS011;31681;48.982;8.394;2022-08-19T11:45:35;10.17;;;8.80;;
45970;SDS011;31681;48.982;8.394;2022-08-19T11:48:00;10.02;;;9.02;;
45970;SDS011;31681;48.982;8.394;2022-08-19T11:50:26;9.50;;;8.55;;
45970;SDS011;31681;48.982;8.394;2022-08-19T11:52:56;10.37;;;8.83;;
45970;SDS011;31681;48.982;8.394;2022-08-19T11:55:21;9.68;;;8.80;;
45970;SDS011;31681;48.982;8.394;2022-08-19T11:57:47;9.02;;;8.13;;
45970;SDS011;31681;48.982;8.394;2022-08-19T12:00:12;9.82;;;8.82;;
45970;SDS011;31681;48.982;8.394;2022-08-19T12:02:38;9.25;;;8.35;;
45970;SDS011;31681;48.982;8.394;2022-08-19T12:05:04;8.77;;;7.97;;
45970;SDS011;31681;48.982;8.394;2022-08-19T12:07:30;11.63;;;8.73;;
45970;SDS011;31681;48.982;8.394;2022-08-19T12:09:58;10.15;;;8.90;;
45970;SDS011;31681;48.982;8.394;2022-08-19T12:12:23;9.48;;;8.65;;
45970;SDS011;31681;48.982;8.394;2022-08-19T12:14:49;8.70;;;7.80;;
45970;SDS011;31681;48.982;8.394;2022-08-19T12:17:21;9.02;;;7.90;;
45970;SDS011;31681;48.982;8.394;2022-08-19T12:19:46;8.98;;;8.18;;
45970;SDS011;31681;48.982;8.394;2022-08-19T12:22:12;9.50;;;8.60;;
45970;SDS011;31681;48.982;8.394;2022-08-19T12:24:37;8.80;;;8.10;;
45970;SDS011;31681;48.982;8.394;2022-08-19T12:27:02;9.67;;;8.83;;
45970;SDS011;31681;48.982;8.394;2022-08-19T12:29:27;9.70;;;8.90;;
45970;SDS011;31681;48.982;8.394;2022-08-19T12:31:53;9.98;;;8.82;;
45970;SDS011;31681;48.982;8.394;2022-08-19T12:34:19;9.52;;;8.63;;
45970;SDS011;31681;48.982;8.394;2022-08-19T12:36:45;9.93;;;8.65;;
45970;SDS011;31681;48.982;8.394;2022-08-19T12:39:10;10.02;;;8.50;;
45970;SDS011;31681;48.982;8.394;2022-08-19T12:41:35;9.55;;;8.65;;
45970;SDS011;31681;48.982;8.394;2022-08-19T12:44:01;8.85;;;8.10;;
45970;SDS011;31681;48.982;8.394;2022-08-19T12:46:27;8.80;;;7.88;;
45970;SDS011;31681;48.982;8.394;2022-08-19T12:48:52;8.15;;;7.43;;
45970;SDS011;31681;48.982;8.394;2022-08-19T12:51:18;8.98;;;8.07;;
45970;SDS011;31681;48.982;8.394;2022-08-19T12:53:46;8.40;;;7.60;;
45970;SDS011;31681;48.982;8.394;2022-08-19T12:56:12;8.35;;;7.57;;
45970;SDS011;31681;48.982;8.394;2022-08-19T12:58:39;8.15;;;7.45;;
45970;SDS011;31681;48.982;8.394;2022-08-19T13:01:16;9.02;;;7.57;;
45970;SDS011;31681;48.982;8.394;2022-08-19T13:03:42;9.20;;;7.70;;
45970;SDS011;31681;48.982;8.394;2022-08-19T13:06:08;8.10;;;7.40;;
45970;SDS011;31681;48.982;8.394;2022-08-19T13:08:34;7.93;;;7.25;;
45970;SDS011;31681;48.982;8.394;2022-08-19T13:11:08;7.70;;;7.00;;
45970;SDS011;31681;48.982;8.394;2022-08-19T13:13:35;11.55;;;6.70;;
45970;SDS011;31681;48.982;8.394;2022-08-19T13:16:01;7.32;;;6.72;;
45970;SDS011;31681;48.982;8.394;2022-08-19T13:18:29;7.85;;;7.05;;
45970;SDS011;31681;48.982;8.394;2022-08-19T13:20:56;6.40;;;5.90;;
45970;SDS011;31681;48.982;8.394;2022-08-19T13:23:21;8.18;;;6.25;;
45970;SDS011;31681;48.982;8.394;2022-08-19T13:25:55;6.40;;;5.83;;
45970;SDS011;31681;48.982;8.394;2022-08-19T13:28:20;6.68;;;5.78;;
45970;SDS011;31681;48.982;8.394;2022-08-19T13:30:46;5.97;;;5.47;;
45970;SDS011;31681;48.982;8.394;2022-08-19T13:33:30;7.53;;;5.57;;
45970;SDS011;31681;48.982;8.394;2022-08-19T13:35:57;5.65;;;5.15;;
45970;SDS011;31681;48.982;8.394;2022-08-19T13:38:23;4.93;;;4.53;;
45970;SDS011;31681;48.982;8.394;2022-08-19T13:40:49;5.55;;;5.00;;
45970;SDS011;31681;48.982;8.394;2022-08-19T13:43:15;5.18;;;4.60;;
45970;SDS011;31681;48.982;8.394;2022-08-19T13:45:41;5.05;;;4.65;;
45970;SDS011;31681;48.982;8.394;2022-08-19T13:48:06;4.40;;;4.00;;
45970;SDS011;31681;48.982;8.394;2022-08-19T13:50:33;4.10;;;3.75;;
45970;SDS011;31681;48.982;8.394;2022-08-19T13:52:59;4.38;;;4.05;;
45970;SDS011;31681;48.982;8.394;2022-08-19T13:55:25;4.68;;;3.60;;
45970;SDS011;31681;48.982;8.394;2022-08-19T13:57:51;4.50;;;3.22;;
45970;SDS011;31681;48.982;8.394;2022-08-19T14:00:18;3.83;;;3.53;;
45970;SDS011;31681;48.982;8.394;2022-08-19T14:02:44;5.65;;;3.67;;
45970;SDS011;31681;48.982;8.394;2022-08-19T14:05:10;4.32;;;3.88;;
45970;SDS011;31681;48.982;8.394;2022-08-19T14:07:36;4.10;;;3.80;;
45970;SDS011;31681;48.982;8.394;2022-08-19T14:10:03;4.22;;;3.90;;
45970;SDS011;31681;48.982;8.394;2022-08-19T14:12:28;4.43;;;3.90;;
45970;SDS011;31681;48.982;8.394;2022-08-19T14:14:53;4.70;;;4.30;;
45970;SDS011;31681;48.982;8.394;2022-08-19T14:17:19;4.95;;;4.60;;
45970;SDS011;31681;48.982;8.394;2022-08-19T14:19:44;4.75;;;4.35;;
45970;SDS011;31681;48.982;8.394;2022-08-19T14:22:11;5.00;;;4.50;;
45970;SDS011;31681;48.982;8.394;2022-08-19T14:24:37;5.60;;;4.70;;
45970;SDS011;31681;48.982;8.394;2022-08-19T14:27:03;4.85;;;4.45;;
45970;SDS011;31681;48.982;8.394;2022-08-19T14:29:29;5.47;;;4.57;;
45970;SDS011;31681;48.982;8.394;2022-08-19T14:31:54;4.97;;;4.53;;
45970;SDS011;31681;48.982;8.394;2022-08-19T14:34:21;5.20;;;4.70;;
45970;SDS011;31681;48.982;8.394;2022-08-19T14:36:47;5.20;;;4.57;;